Orion II — 9HUT9 — position and weather

sailwx.info

Track history (hours):
 
Tides and Currents Weather Stations Pressure Air Temp Water Temp Dewpoint Dewpoint Depression Visibility Wind Speed Wind Dir Waves Ship Positions

Orion II

Last reported at 2020-Apr-02 21:26 UTC. Time now 2020-Apr-02 22:01 UTC.
Position N 28°31' W 016°09'.

Length 88 m; draft 4.1 m.

Type: Passenger vessel. MMSI: 249556000.

Date/timePositionNaut miles runAvg speedWind from/ knotsBaromVisibWave heightAir tempDewpointWater temp
2020-Apr-02 21:26N 28°31' W 016°09'0 0.0
2020-Apr-02 20:59N 28°31' W 016°09'0 0.0
2020-Apr-02 19:29N 28°31' W 016°09'0 0.0
2020-Apr-02 18:59N 28°31' W 016°09'0 0.0
2020-Apr-02 18:29N 28°31' W 016°09'0 0.0
2020-Apr-02 15:29N 28°31' W 016°09'0 0.0
2020-Apr-02 13:29N 28°31' W 016°09'0 0.0
2020-Apr-02 11:59N 28°31' W 016°09'0 0.0
2020-Apr-02 10:59N 28°31' W 016°09'0 0.0
2020-Apr-02 10:29N 28°31' W 016°09'0 0.0
2020-Apr-02 09:26N 28°31' W 016°09'0 0.0
2020-Apr-02 07:59N 28°31' W 016°09'0 0.0
2020-Apr-02 07:29N 28°31' W 016°09'0 0.0
2020-Apr-02 05:29N 28°31' W 016°09'0 0.0
2020-Apr-02 02:26N 28°31' W 016°09'0 0.0
2020-Apr-02 01:59N 28°31' W 016°09'0 0.0
2020-Apr-01 22:59N 28°31' W 016°09'0 0.0
2020-Apr-01 22:29N 28°31' W 016°09'0 0.0
2020-Apr-01 21:29N 28°31' W 016°09'0 0.0
2020-Apr-01 20:59N 28°31' W 016°09'0 0.0
2020-Apr-01 18:29N 28°31' W 016°09'0 0.0
2020-Apr-01 17:59N 28°31' W 016°09'0 0.0
2020-Apr-01 16:59N 28°31' W 016°09'0 0.0
2020-Apr-01 16:29N 28°31' W 016°09'0 0.0
2020-Apr-01 10:29N 28°31' W 016°09'0 0.0
2020-Apr-01 07:59N 28°31' W 016°09'0 0.0
2020-Apr-01 07:29N 28°31' W 016°09'0 0.0
2020-Mar-31 21:59N 28°31' W 016°09'0 0.0
2020-Mar-31 20:59N 28°31' W 016°09'0 0.0
2020-Mar-31 20:29N 28°31' W 016°09'0 0.0
2020-Mar-31 17:59N 28°31' W 016°09'0 0.0
2020-Mar-31 16:29N 28°31' W 016°09'0 0.0
2020-Mar-31 15:59N 28°31' W 016°09'0 0.0
2020-Mar-31 11:30N 28°31' W 016°09'0 0.0
2020-Mar-31 11:01N 28°31' W 016°09'0 0.0
2020-Mar-31 10:00N 28°31' W 016°09'0 0.1
2020-Mar-31 09:30N 28°31' W 016°09'4 4.2
2020-Mar-31 08:31N 28°28' W 016°13'0 0.2
2020-Mar-31 07:31N 28°28' W 016°13'2 1.6
2020-Mar-31 06:31N 28°27' W 016°12'9 6.3
2020-Mar-31 05:00N 28°23' W 016°02'3 6.5
2020-Mar-31 04:30N 28°21' W 015°59'5 5.2
2020-Mar-31 03:30N 28°16' W 015°60'  
Track history (hours):
 
Tides and Currents Weather Stations Pressure Air Temp Water Temp Dewpoint Dewpoint Depression Visibility Wind Speed Wind Dir Waves Ship Positions

Orion II

Last reported at 2020-Apr-02 21:26 UTC. Time now 2020-Apr-02 22:01 UTC.
Position N 28°31' W 016°09'.

Length 88 m; draft 4.1 m.

Type: Passenger vessel. MMSI: 249556000.

Date/timePositionNaut miles runAvg speedWind from/ knotsBaromVisibWave heightAir tempDewpointWater temp
2020-Apr-02 21:26N 28°31' W 016°09'0 0.0
2020-Apr-02 20:59N 28°31' W 016°09'0 0.0
2020-Apr-02 19:29N 28°31' W 016°09'0 0.0
2020-Apr-02 18:59N 28°31' W 016°09'0 0.0
2020-Apr-02 18:29N 28°31' W 016°09'0 0.0
2020-Apr-02 15:29N 28°31' W 016°09'0 0.0
2020-Apr-02 13:29N 28°31' W 016°09'0 0.0
2020-Apr-02 11:59N 28°31' W 016°09'0 0.0
2020-Apr-02 10:59N 28°31' W 016°09'0 0.0
2020-Apr-02 10:29N 28°31' W 016°09'0 0.0
2020-Apr-02 09:26N 28°31' W 016°09'0 0.0
2020-Apr-02 07:59N 28°31' W 016°09'0 0.0
2020-Apr-02 07:29N 28°31' W 016°09'0 0.0
2020-Apr-02 05:29N 28°31' W 016°09'0 0.0
2020-Apr-02 02:26N 28°31' W 016°09'0 0.0
2020-Apr-02 01:59N 28°31' W 016°09'0 0.0
2020-Apr-01 22:59N 28°31' W 016°09'0 0.0
2020-Apr-01 22:29N 28°31' W 016°09'0 0.0
2020-Apr-01 21:29N 28°31' W 016°09'0 0.0
2020-Apr-01 20:59N 28°31' W 016°09'0 0.0
2020-Apr-01 18:29N 28°31' W 016°09'0 0.0
2020-Apr-01 17:59N 28°31' W 016°09'0 0.0
2020-Apr-01 16:59N 28°31' W 016°09'0 0.0
2020-Apr-01 16:29N 28°31' W 016°09'0 0.0
2020-Apr-01 10:29N 28°31' W 016°09'0 0.0
2020-Apr-01 07:59N 28°31' W 016°09'0 0.0
2020-Apr-01 07:29N 28°31' W 016°09'0 0.0
2020-Mar-31 21:59N 28°31' W 016°09'0 0.0
2020-Mar-31 20:59N 28°31' W 016°09'0 0.0
2020-Mar-31 20:29N 28°31' W 016°09'0 0.0
2020-Mar-31 17:59N 28°31' W 016°09'0 0.0
2020-Mar-31 16:29N 28°31' W 016°09'0 0.0
2020-Mar-31 15:59N 28°31' W 016°09'0 0.0
2020-Mar-31 11:30N 28°31' W 016°09'0 0.0
2020-Mar-31 11:01N 28°31' W 016°09'0 0.0
2020-Mar-31 10:00N 28°31' W 016°09'0 0.1
2020-Mar-31 09:30N 28°31' W 016°09'4 4.2
2020-Mar-31 08:31N 28°28' W 016°13'0 0.2
2020-Mar-31 07:31N 28°28' W 016°13'2 1.6
2020-Mar-31 06:31N 28°27' W 016°12'9 6.3
2020-Mar-31 05:00N 28°23' W 016°02'3 6.5
2020-Mar-31 04:30N 28°21' W 015°59'5 5.2
2020-Mar-31 03:30N 28°16' W 015°60'  

Dump ship's entire track history